createdAt,value
2022-11-18T00:00:26.799Z,22.33
2022-11-18T00:01:27.397Z,22.36
2022-11-18T00:02:28.054Z,22.29
2022-11-18T00:03:28.682Z,22.29
2022-11-18T00:04:29.336Z,22.26
2022-11-18T00:05:30.785Z,22.32
2022-11-18T00:06:31.396Z,22.26
2022-11-18T00:07:32.154Z,22.39
2022-11-18T00:08:32.775Z,22.32
2022-11-18T00:09:34.220Z,22.23
2022-11-18T00:10:34.824Z,22.22
2022-11-18T00:11:35.427Z,22.22
2022-11-18T00:12:36.091Z,22.22
2022-11-18T00:13:36.689Z,22.23
2022-11-18T00:14:37.291Z,22.22
2022-11-18T00:15:37.939Z,22.18
2022-11-18T00:16:38.692Z,22.15
2022-11-18T00:17:39.288Z,22.23
2022-11-18T00:18:39.890Z,22.08
2022-11-18T00:19:40.484Z,22.17
2022-11-18T00:20:41.090Z,22.17
2022-11-18T00:21:41.688Z,22.18
2022-11-18T00:22:43.154Z,22.13
2022-11-18T00:23:43.748Z,22.14
2022-11-18T00:24:44.350Z,22.17
2022-11-18T00:25:44.946Z,22.11
2022-11-18T00:26:45.550Z,22.06
2022-11-18T00:27:46.218Z,22.07
2022-11-18T00:28:46.822Z,22.04
2022-11-18T00:29:47.421Z,22.15
2022-11-18T00:30:48.824Z,22.07
2022-11-18T00:31:50.270Z,22.08
2022-11-18T00:32:50.874Z,22.11
2022-11-18T00:33:51.470Z,22.10
2022-11-18T00:34:52.974Z,22.10
2022-11-18T00:35:53.619Z,22.11
2022-11-18T00:36:54.224Z,22.07
2022-11-18T00:37:55.038Z,22.06
2022-11-18T00:38:55.642Z,22.04
2022-11-18T00:39:56.249Z,22.02
2022-11-18T00:40:56.841Z,21.93
2022-11-18T00:41:57.436Z,21.92
2022-11-18T00:42:58.038Z,21.92
2022-11-18T00:43:58.633Z,21.93
2022-11-18T00:44:59.242Z,21.91
2022-11-18T00:45:59.837Z,21.92
2022-11-18T00:47:00.441Z,21.92
2022-11-18T00:48:01.039Z,21.98
2022-11-18T00:49:01.644Z,22.00
2022-11-18T00:50:02.241Z,21.93
2022-11-18T00:51:02.845Z,21.92
2022-11-18T00:52:03.442Z,21.87
2022-11-18T00:53:04.044Z,21.89
2022-11-18T00:54:04.640Z,21.87
2022-11-18T00:55:05.242Z,21.89
2022-11-18T00:56:05.837Z,21.87
2022-11-18T00:57:06.441Z,21.89
2022-11-18T00:58:07.231Z,21.91
2022-11-18T00:59:07.837Z,21.89
2022-11-18T01:00:08.436Z,21.91
2022-11-18T01:01:09.081Z,21.82
2022-11-18T01:02:09.720Z,21.85
2022-11-18T01:03:10.325Z,21.87
2022-11-18T01:04:10.919Z,21.82
2022-11-18T01:05:11.524Z,21.83
2022-11-18T01:06:12.188Z,21.87
2022-11-18T01:07:12.816Z,21.89
2022-11-18T01:08:13.440Z,21.82
2022-11-18T01:09:14.081Z,21.80
2022-11-18T01:10:14.749Z,21.72
2022-11-18T01:11:15.354Z,21.82
2022-11-18T01:12:15.971Z,21.73
2022-11-18T01:13:16.575Z,21.75
2022-11-18T01:14:17.171Z,21.77
2022-11-18T01:15:17.775Z,21.79
2022-11-18T01:16:18.372Z,21.75
2022-11-18T01:17:18.978Z,21.76
2022-11-18T01:18:19.577Z,21.72
2022-11-18T01:19:20.271Z,21.69
2022-11-18T01:20:20.840Z,21.72
2022-11-18T01:21:21.448Z,21.70
2022-11-18T01:22:22.040Z,21.69
2022-11-18T01:23:22.643Z,21.72
2022-11-18T01:24:23.238Z,21.72
2022-11-18T01:25:23.843Z,21.70
2022-11-18T01:26:24.441Z,21.70
2022-11-18T01:27:25.044Z,21.69
2022-11-18T01:28:25.643Z,21.69
2022-11-18T01:29:26.308Z,21.69
2022-11-18T01:30:26.905Z,21.66
2022-11-18T01:31:27.509Z,21.70
2022-11-18T01:32:28.103Z,21.67
2022-11-18T01:33:28.708Z,21.70
2022-11-18T01:34:29.305Z,21.55
2022-11-18T01:35:30.057Z,21.73
2022-11-18T01:36:30.702Z,21.67
2022-11-18T01:37:31.303Z,21.54
2022-11-18T01:38:31.946Z,21.62
2022-11-18T01:39:32.541Z,21.66
2022-11-18T01:40:33.143Z,21.66
2022-11-18T01:41:33.737Z,21.73
2022-11-18T01:42:34.341Z,21.67
2022-11-18T01:43:34.937Z,21.61
2022-11-18T01:44:35.541Z,21.62
2022-11-18T01:45:36.137Z,21.61
2022-11-18T01:46:36.742Z,21.60
2022-11-18T01:47:37.340Z,21.58
2022-11-18T01:48:37.945Z,21.57
2022-11-18T01:49:38.591Z,21.61
2022-11-18T01:50:39.348Z,21.54
2022-11-18T01:51:39.940Z,21.62
2022-11-18T01:52:40.545Z,21.62
2022-11-18T01:53:41.142Z,21.58
2022-11-18T01:54:41.743Z,21.60
2022-11-18T01:55:42.337Z,21.55
2022-11-18T01:56:42.941Z,21.57
2022-11-18T01:57:43.538Z,21.55
2022-11-18T01:58:44.144Z,21.57
2022-11-18T01:59:44.739Z,21.54
2022-11-18T02:00:45.344Z,21.57
2022-11-18T02:01:45.978Z,21.54
2022-11-18T02:02:46.769Z,21.51
2022-11-18T02:03:47.365Z,21.52
2022-11-18T02:04:47.969Z,21.51
2022-11-18T02:05:48.565Z,21.54
2022-11-18T02:06:49.170Z,21.51
2022-11-18T02:07:49.767Z,21.48
2022-11-18T02:08:50.373Z,21.54
2022-11-18T02:09:50.970Z,21.54
2022-11-18T02:10:51.573Z,21.46
2022-11-18T02:11:52.996Z,21.52
2022-11-18T02:12:53.597Z,21.50
2022-11-18T02:13:54.194Z,21.48
2022-11-18T02:14:54.799Z,21.51
2022-11-18T02:15:55.399Z,21.51
2022-11-18T02:16:56.018Z,21.46
2022-11-18T02:17:56.600Z,21.50
2022-11-18T02:18:57.204Z,21.46
2022-11-18T02:19:57.800Z,21.50
2022-11-18T02:20:58.404Z,21.43
2022-11-18T02:21:58.999Z,21.50
2022-11-18T02:22:59.600Z,21.50
2022-11-18T02:24:00.195Z,21.46
2022-11-18T02:25:00.798Z,21.48
2022-11-18T02:26:01.394Z,21.46
2022-11-18T02:27:01.996Z,21.46
2022-11-18T02:28:02.591Z,21.45
2022-11-18T02:29:03.195Z,21.46
2022-11-18T02:30:03.794Z,21.43
2022-11-18T02:31:04.394Z,21.46
2022-11-18T02:32:04.994Z,21.46
2022-11-18T02:33:05.597Z,21.45
2022-11-18T02:34:06.192Z,21.45
2022-11-18T02:35:06.797Z,21.40
2022-11-18T02:36:07.393Z,21.42
2022-11-18T02:37:07.995Z,21.43
2022-11-18T02:38:08.590Z,21.40
2022-11-18T02:39:09.194Z,21.43
2022-11-18T02:40:09.788Z,21.42
2022-11-18T02:41:10.399Z,21.37
2022-11-18T02:42:11.034Z,21.42
2022-11-18T02:43:11.638Z,21.33
2022-11-18T02:44:12.233Z,21.33
2022-11-18T02:45:12.836Z,21.40
2022-11-18T02:46:13.431Z,21.40
2022-11-18T02:47:14.033Z,21.39
2022-11-18T02:48:14.629Z,21.35
2022-11-18T02:49:15.589Z,21.33
2022-11-18T02:50:16.399Z,21.33
2022-11-18T02:51:17.803Z,21.32
2022-11-18T02:52:18.446Z,21.36
2022-11-18T02:53:19.152Z,21.37
2022-11-18T02:54:19.796Z,21.42
2022-11-18T02:55:20.448Z,21.40
2022-11-18T02:56:21.041Z,21.40
2022-11-18T02:57:21.646Z,21.37
2022-11-18T02:58:22.239Z,21.42
2022-11-18T02:59:22.845Z,21.39
2022-11-18T03:00:23.438Z,21.40
2022-11-18T03:01:24.136Z,21.32
2022-11-18T03:02:24.741Z,21.35
2022-11-18T03:03:25.343Z,21.39
2022-11-18T03:04:25.939Z,21.36
2022-11-18T03:05:26.543Z,21.33
2022-11-18T03:06:27.139Z,21.33
2022-11-18T03:07:27.788Z,21.35
2022-11-18T03:08:28.494Z,21.33
2022-11-18T03:09:29.097Z,21.33
2022-11-18T03:10:29.691Z,21.37
2022-11-18T03:11:30.294Z,21.37
2022-11-18T03:12:30.889Z,21.33
2022-11-18T03:13:31.556Z,21.35
2022-11-18T03:14:32.153Z,21.35
2022-11-18T03:15:32.759Z,21.33
2022-11-18T03:16:33.355Z,21.37
2022-11-18T03:17:33.958Z,21.36
2022-11-18T03:18:34.556Z,21.35
2022-11-18T03:19:35.160Z,21.29
2022-11-18T03:20:35.851Z,21.35
2022-11-18T03:21:36.416Z,21.32
2022-11-18T03:22:37.012Z,21.29
2022-11-18T03:23:37.617Z,21.35
2022-11-18T03:24:38.212Z,21.33
2022-11-18T03:25:38.877Z,21.33
2022-11-18T03:26:39.472Z,21.29
2022-11-18T03:27:40.076Z,21.30
2022-11-18T03:28:40.674Z,21.27
2022-11-18T03:29:42.076Z,21.32
2022-11-18T03:30:42.671Z,21.29
2022-11-18T03:31:43.274Z,21.27
2022-11-18T03:32:43.868Z,21.24
2022-11-18T03:33:44.471Z,21.30
2022-11-18T03:34:45.067Z,21.30
2022-11-18T03:35:45.670Z,21.29
2022-11-18T03:36:51.295Z,21.22
2022-11-18T03:37:47.863Z,21.35
2022-11-18T03:38:48.456Z,21.24
2022-11-18T03:39:49.059Z,21.27
2022-11-18T03:40:49.661Z,21.27
2022-11-18T03:41:50.258Z,21.29
2022-11-18T03:42:50.852Z,21.27
2022-11-18T03:43:51.456Z,21.27
2022-11-18T03:44:52.704Z,21.25
2022-11-18T03:45:53.410Z,21.24
2022-11-18T03:46:54.000Z,21.21
2022-11-18T03:47:54.603Z,21.29
2022-11-18T03:48:55.198Z,21.27
2022-11-18T03:49:55.801Z,21.25
2022-11-18T03:50:56.394Z,21.30
2022-11-18T03:51:56.998Z,21.33
2022-11-18T03:52:57.594Z,21.30
2022-11-18T03:53:58.197Z,21.29
2022-11-18T03:54:58.795Z,21.24
2022-11-18T03:55:59.451Z,21.21
2022-11-18T03:57:00.047Z,21.33
2022-11-18T03:58:00.652Z,21.25
2022-11-18T03:59:01.248Z,21.15
2022-11-18T04:00:01.907Z,21.18
2022-11-18T04:01:02.649Z,21.21
2022-11-18T04:02:03.411Z,21.27
2022-11-18T04:03:04.070Z,21.18
2022-11-18T04:04:04.660Z,21.27
2022-11-18T04:05:05.259Z,21.20
2022-11-18T04:06:05.912Z,21.27
2022-11-18T04:07:06.526Z,21.14
2022-11-18T04:08:07.123Z,21.15
2022-11-18T04:09:07.718Z,21.17
2022-11-18T04:10:08.320Z,21.24
2022-11-18T04:11:08.914Z,21.24
2022-11-18T04:12:09.519Z,21.21
2022-11-18T04:13:10.114Z,21.21
2022-11-18T04:14:10.717Z,21.20
2022-11-18T04:15:11.311Z,21.18
2022-11-18T04:16:11.915Z,21.18
2022-11-18T04:17:13.362Z,21.18
2022-11-18T04:18:14.029Z,21.21
2022-11-18T04:19:14.624Z,21.17
2022-11-18T04:20:15.227Z,21.14
2022-11-18T04:21:15.922Z,21.14
2022-11-18T04:22:16.528Z,21.14
2022-11-18T04:23:17.121Z,21.20
2022-11-18T04:24:17.725Z,21.17
2022-11-18T04:25:18.320Z,21.11
2022-11-18T04:26:18.920Z,21.12
2022-11-18T04:27:19.516Z,21.20
2022-11-18T04:28:20.125Z,21.11
2022-11-18T04:29:20.809Z,21.09
2022-11-18T04:30:21.392Z,21.11
2022-11-18T04:31:22.056Z,21.20
2022-11-18T04:32:22.662Z,21.20
2022-11-18T04:33:23.254Z,21.14
2022-11-18T04:34:23.859Z,21.20
2022-11-18T04:35:24.455Z,21.11
2022-11-18T04:36:25.071Z,21.15
2022-11-18T04:37:25.724Z,21.17
2022-11-18T04:38:26.328Z,21.12
2022-11-18T04:39:26.921Z,21.18
2022-11-18T04:40:27.524Z,21.15
2022-11-18T04:41:28.117Z,21.15
2022-11-18T04:42:28.726Z,21.18
2022-11-18T04:43:29.313Z,21.17
2022-11-18T04:44:29.931Z,21.20
2022-11-18T04:45:30.588Z,21.17
2022-11-18T04:46:31.190Z,21.20
2022-11-18T04:47:31.783Z,21.20
2022-11-18T04:48:32.391Z,21.20
2022-11-18T04:49:32.980Z,21.18
2022-11-18T04:50:33.582Z,21.11
2022-11-18T04:51:34.357Z,21.14
2022-11-18T04:52:34.918Z,21.17
2022-11-18T04:53:35.583Z,21.15
2022-11-18T04:54:36.987Z,21.11
2022-11-18T04:55:37.582Z,21.14
2022-11-18T04:56:38.186Z,21.12
2022-11-18T04:57:38.780Z,21.18
2022-11-18T04:58:39.383Z,21.15
2022-11-18T04:59:39.980Z,21.12
2022-11-18T05:00:40.587Z,21.17
2022-11-18T05:01:41.276Z,21.15
2022-11-18T05:02:41.933Z,21.09
2022-11-18T05:03:47.686Z,21.11
2022-11-18T05:04:44.166Z,21.21
2022-11-18T05:05:44.862Z,21.17
2022-11-18T05:06:45.464Z,21.09
2022-11-18T05:07:46.083Z,21.15
2022-11-18T05:08:46.710Z,21.11
2022-11-18T05:09:47.307Z,21.20
2022-11-18T05:10:47.911Z,21.11
2022-11-18T05:11:48.561Z,21.12
2022-11-18T05:12:49.179Z,21.11
2022-11-18T05:13:49.769Z,21.09
2022-11-18T05:14:51.097Z,21.18
2022-11-18T05:15:51.857Z,21.11
2022-11-18T05:16:53.262Z,21.14
2022-11-18T05:17:53.857Z,21.14
2022-11-18T05:18:54.460Z,21.12
2022-11-18T05:19:55.156Z,21.17
2022-11-18T05:20:55.820Z,21.09
2022-11-18T05:21:57.267Z,21.05
2022-11-18T05:22:57.886Z,21.11
2022-11-18T05:23:58.467Z,21.11
2022-11-18T05:24:59.070Z,21.12
2022-11-18T05:26:02.415Z,21.07
2022-11-18T05:27:01.266Z,21.02
2022-11-18T05:28:01.857Z,21.11
2022-11-18T05:29:02.461Z,21.14
2022-11-18T05:30:03.056Z,21.09
2022-11-18T05:31:03.660Z,21.09
2022-11-18T05:32:04.265Z,21.11
2022-11-18T05:33:04.860Z,21.15
2022-11-18T05:34:05.458Z,21.15
2022-11-18T05:35:06.059Z,21.07
2022-11-18T05:36:06.651Z,21.06
2022-11-18T05:37:07.321Z,21.07
2022-11-18T05:38:07.915Z,21.12
2022-11-18T05:39:08.522Z,21.06
2022-11-18T05:40:09.124Z,21.07
2022-11-18T05:41:10.567Z,21.06
2022-11-18T05:42:11.161Z,21.07
2022-11-18T05:43:11.763Z,21.06
2022-11-18T05:44:12.367Z,21.09
2022-11-18T05:45:12.964Z,21.03
2022-11-18T05:46:13.572Z,21.05
2022-11-18T05:47:14.178Z,21.05
2022-11-18T05:48:14.757Z,21.06
2022-11-18T05:49:15.592Z,21.11
2022-11-18T05:50:21.102Z,21.03
2022-11-18T05:51:18.018Z,21.05
2022-11-18T05:52:18.613Z,21.00
2022-11-18T05:53:19.215Z,21.07
2022-11-18T05:54:19.808Z,21.06
2022-11-18T05:55:21.213Z,21.03
2022-11-18T05:56:21.810Z,21.07
2022-11-18T05:57:22.414Z,21.05
2022-11-18T05:58:23.094Z,21.05
2022-11-18T05:59:23.754Z,21.02
2022-11-18T06:00:24.359Z,21.09
2022-11-18T06:01:24.955Z,21.05
2022-11-18T06:02:25.607Z,21.05
2022-11-18T06:03:30.508Z,21.03
2022-11-18T06:04:27.916Z,21.00
2022-11-18T06:05:28.514Z,21.03
2022-11-18T06:06:29.124Z,21.12
2022-11-18T06:07:29.828Z,21.06
2022-11-18T06:08:30.453Z,21.03
2022-11-18T06:09:31.056Z,21.17
2022-11-18T06:10:31.718Z,21.03
2022-11-18T06:11:32.364Z,21.07
2022-11-18T06:12:33.165Z,21.02
2022-11-18T06:13:33.760Z,21.12
2022-11-18T06:14:35.166Z,21.09
2022-11-18T06:15:35.831Z,21.07
2022-11-18T06:16:40.687Z,20.95
2022-11-18T06:17:38.023Z,21.02
2022-11-18T06:18:38.627Z,21.05
2022-11-18T06:19:40.022Z,21.05
2022-11-18T06:20:40.624Z,21.09
2022-11-18T06:21:41.226Z,21.02
2022-11-18T06:22:46.257Z,21.03
2022-11-18T06:23:43.414Z,20.99
2022-11-18T06:24:44.013Z,21.02
2022-11-18T06:25:44.611Z,21.07
2022-11-18T06:26:45.213Z,21.06
2022-11-18T06:27:46.708Z,21.00
2022-11-18T06:28:47.313Z,20.96
2022-11-18T06:29:47.907Z,20.99
2022-11-18T06:30:49.420Z,21.00
2022-11-18T06:31:50.858Z,21.00
2022-11-18T06:32:51.563Z,20.99
2022-11-18T06:33:52.305Z,20.96
2022-11-18T06:34:52.908Z,21.11
2022-11-18T06:35:53.503Z,21.06
2022-11-18T06:36:54.108Z,21.06
2022-11-18T06:37:54.703Z,20.97
2022-11-18T06:38:55.301Z,21.02
2022-11-18T06:39:55.897Z,21.02
2022-11-18T06:40:56.498Z,21.11
2022-11-18T06:41:57.094Z,20.97
2022-11-18T06:42:57.699Z,21.05
2022-11-18T06:43:58.293Z,21.06
2022-11-18T06:44:59.054Z,21.02
2022-11-18T06:46:03.493Z,21.03
2022-11-18T06:47:01.271Z,20.99
2022-11-18T06:48:01.869Z,21.02
2022-11-18T06:49:02.474Z,20.93
2022-11-18T06:50:03.063Z,20.95
2022-11-18T06:51:03.667Z,21.02
2022-11-18T06:52:04.262Z,21.02
2022-11-18T06:53:04.865Z,21.02
2022-11-18T06:54:10.651Z,21.02
2022-11-18T06:55:07.858Z,20.96
2022-11-18T06:56:08.454Z,21.00
2022-11-18T06:57:09.056Z,20.96
2022-11-18T06:58:09.654Z,20.97
2022-11-18T06:59:10.255Z,20.96
2022-11-18T07:00:10.849Z,20.96
2022-11-18T07:01:11.579Z,20.95
2022-11-18T07:02:12.257Z,20.97
2022-11-18T07:03:12.863Z,20.97
2022-11-18T07:04:13.460Z,20.88
2022-11-18T07:05:14.061Z,20.97
2022-11-18T07:06:14.654Z,20.96
2022-11-18T07:07:15.288Z,20.95
2022-11-18T07:08:15.919Z,20.97
2022-11-18T07:09:16.823Z,20.96
2022-11-18T07:10:17.757Z,20.97
2022-11-18T07:11:18.351Z,21.00
2022-11-18T07:12:18.948Z,20.96
2022-11-18T07:13:19.552Z,20.96
2022-11-18T07:14:20.146Z,20.96
2022-11-18T07:15:21.552Z,20.99
2022-11-18T07:16:22.147Z,20.99
2022-11-18T07:17:22.751Z,20.96
2022-11-18T07:18:23.347Z,20.96
2022-11-18T07:19:23.947Z,21.02
2022-11-18T07:20:24.541Z,20.92
2022-11-18T07:21:25.156Z,20.90
2022-11-18T07:22:25.740Z,20.87
2022-11-18T07:23:26.440Z,20.87
2022-11-18T07:24:27.017Z,20.87
2022-11-18T07:25:27.608Z,20.92
2022-11-18T07:26:28.201Z,20.92
2022-11-18T07:27:28.806Z,20.95
2022-11-18T07:28:29.399Z,20.92
2022-11-18T07:29:30.004Z,20.88
2022-11-18T07:30:30.623Z,20.87
2022-11-18T07:31:31.196Z,20.95
2022-11-18T07:32:31.790Z,20.93
2022-11-18T07:33:32.395Z,20.99
2022-11-18T07:34:32.992Z,20.92
2022-11-18T07:35:33.596Z,20.99
2022-11-18T07:36:36.045Z,20.95
2022-11-18T07:37:37.439Z,21.00
2022-11-18T07:38:38.086Z,20.96
2022-11-18T07:39:38.740Z,20.92
2022-11-18T07:40:39.336Z,20.97
2022-11-18T07:41:39.941Z,20.84
2022-11-18T07:42:41.435Z,20.90
2022-11-18T07:43:42.038Z,20.87
2022-11-18T07:44:42.634Z,20.87
2022-11-18T07:45:43.238Z,20.87
2022-11-18T07:46:43.834Z,20.88
2022-11-18T07:47:44.440Z,20.88
2022-11-18T07:48:45.043Z,20.88
2022-11-18T07:49:45.642Z,20.87
2022-11-18T07:50:47.363Z,20.87
2022-11-18T07:51:47.830Z,20.82
2022-11-18T07:52:48.426Z,20.88
2022-11-18T07:53:49.033Z,20.88
2022-11-18T07:54:49.629Z,20.87
2022-11-18T07:55:50.235Z,20.92
2022-11-18T07:56:50.830Z,20.85
2022-11-18T07:57:51.435Z,20.96
2022-11-18T07:58:52.033Z,20.88
2022-11-18T07:59:52.635Z,20.87
2022-11-18T08:00:53.230Z,20.88
2022-11-18T08:01:53.894Z,20.88
2022-11-18T08:02:54.495Z,20.84
2022-11-18T08:03:55.098Z,20.95
2022-11-18T08:04:55.720Z,20.87
2022-11-18T08:05:56.313Z,20.93
2022-11-18T08:06:56.959Z,20.92
2022-11-18T08:07:57.591Z,20.84
2022-11-18T08:08:58.257Z,20.93
2022-11-18T08:09:58.858Z,20.92
2022-11-18T08:10:59.452Z,20.92
2022-11-18T08:12:00.055Z,20.92
2022-11-18T08:13:00.651Z,20.93
2022-11-18T08:14:01.295Z,20.85
2022-11-18T08:15:01.918Z,20.85
2022-11-18T08:16:02.520Z,20.87
2022-11-18T08:17:03.112Z,20.93
2022-11-18T08:18:03.715Z,20.95
2022-11-18T08:19:04.313Z,20.92
2022-11-18T08:20:04.911Z,20.87
2022-11-18T08:21:05.508Z,20.87
2022-11-18T08:22:06.114Z,20.90
2022-11-18T08:23:07.557Z,20.85
2022-11-18T08:24:08.160Z,20.93
2022-11-18T08:25:08.753Z,20.87
2022-11-18T08:26:09.359Z,20.88
2022-11-18T08:27:09.955Z,20.90
2022-11-18T08:28:10.617Z,20.95
2022-11-18T08:29:11.215Z,20.85
2022-11-18T08:30:11.831Z,20.88
2022-11-18T08:31:12.502Z,20.84
2022-11-18T08:32:13.197Z,20.87
2022-11-18T08:33:13.784Z,20.95
2022-11-18T08:34:14.388Z,20.87
2022-11-18T08:35:14.984Z,20.87
2022-11-18T08:36:15.591Z,20.88
2022-11-18T08:37:16.261Z,20.93
2022-11-18T08:38:17.711Z,20.90
2022-11-18T08:39:18.660Z,20.93
2022-11-18T08:40:19.381Z,20.87
2022-11-18T08:41:19.977Z,20.87
2022-11-18T08:42:24.206Z,20.84
2022-11-18T08:43:22.169Z,20.87
2022-11-18T08:44:23.623Z,20.90
2022-11-18T08:45:24.216Z,20.87
2022-11-18T08:46:24.817Z,20.90
2022-11-18T08:47:25.419Z,20.92
2022-11-18T08:48:26.121Z,20.90
2022-11-18T08:49:32.224Z,20.90
2022-11-18T08:50:28.310Z,20.84
2022-11-18T08:51:28.906Z,20.92
2022-11-18T08:52:29.574Z,20.84
2022-11-18T08:53:30.166Z,20.77
2022-11-18T08:54:30.920Z,20.88
2022-11-18T08:55:31.516Z,20.85
2022-11-18T08:56:32.118Z,20.84
2022-11-18T08:57:32.711Z,20.74
2022-11-18T08:58:33.314Z,20.84
2022-11-18T08:59:33.907Z,20.84
2022-11-18T09:00:34.511Z,20.82
2022-11-18T09:01:35.188Z,20.87
2022-11-18T09:02:35.795Z,20.92
2022-11-18T09:03:36.407Z,20.78
2022-11-18T09:04:36.993Z,20.84
2022-11-18T09:05:37.590Z,20.88
2022-11-18T09:06:38.193Z,20.84
